createdAt,value
2023-12-23T00:01:05.669Z,3.48
2023-12-23T00:04:08.100Z,3.29
2023-12-23T00:07:13.974Z,3.42
2023-12-23T00:10:16.700Z,3.36
2023-12-23T00:13:19.198Z,3.29
2023-12-23T00:16:21.583Z,2.96
2023-12-23T00:19:24.027Z,2.94
2023-12-23T00:22:27.100Z,2.66
2023-12-23T00:25:29.473Z,2.55
2023-12-23T00:28:31.825Z,2.55
2023-12-23T00:31:34.229Z,2.35
2023-12-23T00:34:38.062Z,2.43
2023-12-23T00:37:41.118Z,2.43
2023-12-23T00:40:43.676Z,2.28
2023-12-23T00:43:46.117Z,2.28
2023-12-23T00:46:48.480Z,2.41
2023-12-23T00:49:50.910Z,2.19
2023-12-23T00:52:53.368Z,2.33
2023-12-23T00:55:55.907Z,2.29
2023-12-23T00:58:58.303Z,2.28
2023-12-23T01:02:00.686Z,2.11
2023-12-23T01:05:03.264Z,2.03
2023-12-23T01:08:06.099Z,2.17
2023-12-23T01:11:09.910Z,2.22
2023-12-23T01:14:12.342Z,2.13
2023-12-23T01:17:14.742Z,2.21
2023-12-23T01:20:17.364Z,2.22
2023-12-23T01:23:20.059Z,1.98
2023-12-23T01:26:23.199Z,2.12
2023-12-23T01:29:25.573Z,1.88
2023-12-23T01:32:27.983Z,1.98
2023-12-23T01:35:30.440Z,1.96
2023-12-23T01:38:34.576Z,2.07
2023-12-23T01:41:37.012Z,2.02
2023-12-23T01:44:39.329Z,2.08
2023-12-23T01:47:45.051Z,1.84
2023-12-23T01:50:47.623Z,1.88
2023-12-23T01:53:50.331Z,2.13
2023-12-23T01:56:54.279Z,2.25
2023-12-23T01:59:57.188Z,2.33
2023-12-23T02:03:00.929Z,2.34
2023-12-23T02:06:04.065Z,2.50
2023-12-23T02:09:06.785Z,2.49
2023-12-23T02:12:15.467Z,2.48
2023-12-23T02:15:19.961Z,2.31
2023-12-23T02:18:24.723Z,2.54
2023-12-23T02:21:29.016Z,2.47
2023-12-23T02:24:31.545Z,2.55
2023-12-23T02:27:51.291Z,2.55
2023-12-23T02:30:55.011Z,2.48
2023-12-23T02:33:57.703Z,2.47
2023-12-23T02:37:00.150Z,2.43
2023-12-23T02:40:02.683Z,2.30
2023-12-23T02:43:05.097Z,2.33
2023-12-23T02:46:07.524Z,2.24
2023-12-23T02:49:10.973Z,2.26
2023-12-23T02:52:13.433Z,2.45
2023-12-23T02:55:16.576Z,2.41
2023-12-23T02:58:18.981Z,2.37
2023-12-23T03:01:21.890Z,2.36
2023-12-23T03:04:24.259Z,2.36
2023-12-23T03:07:26.818Z,2.28
2023-12-23T03:10:29.152Z,2.30
2023-12-23T03:13:31.510Z,2.36
2023-12-23T03:16:37.085Z,2.34
2023-12-23T03:19:42.330Z,2.13
2023-12-23T03:22:44.783Z,2.25
2023-12-23T03:25:47.232Z,2.24
2023-12-23T03:28:49.585Z,2.11
2023-12-23T03:31:52.034Z,1.92
2023-12-23T03:34:54.444Z,2.18
2023-12-23T03:37:56.804Z,2.02
2023-12-23T03:40:59.182Z,1.88
2023-12-23T03:44:01.627Z,1.96
2023-12-23T03:47:04.356Z,1.97
2023-12-23T03:50:07.264Z,1.88
2023-12-23T03:53:10.894Z,2.16
2023-12-23T03:56:13.380Z,2.16
2023-12-23T03:59:15.886Z,2.09
2023-12-23T04:02:18.399Z,2.10
2023-12-23T04:05:21.053Z,2.22
2023-12-23T04:08:23.633Z,2.33
2023-12-23T04:11:26.070Z,2.32
2023-12-23T04:14:29.275Z,2.03
2023-12-23T04:17:31.635Z,2.17
2023-12-23T04:20:34.060Z,2.37
2023-12-23T04:23:37.272Z,2.31
2023-12-23T04:26:39.660Z,2.16
2023-12-23T04:29:42.102Z,2.09
2023-12-23T04:32:44.658Z,2.05
2023-12-23T04:35:47.258Z,1.94
2023-12-23T04:38:50.251Z,2.15
2023-12-23T04:41:54.734Z,1.80
2023-12-23T04:44:57.207Z,1.93
2023-12-23T04:48:00.416Z,1.95
2023-12-23T04:51:02.825Z,1.86
2023-12-23T04:54:05.338Z,1.81
2023-12-23T04:57:07.683Z,1.80
2023-12-23T05:00:10.799Z,1.72
2023-12-23T05:03:13.202Z,1.40
2023-12-23T05:06:16.054Z,1.44
2023-12-23T05:09:19.434Z,1.37
2023-12-23T05:12:26.079Z,1.15
2023-12-23T05:15:28.439Z,1.31
2023-12-23T05:18:30.857Z,1.29
2023-12-23T05:21:33.302Z,1.47
2023-12-23T05:24:38.907Z,1.65
2023-12-23T05:27:41.317Z,1.69
2023-12-23T05:30:43.813Z,1.73
2023-12-23T05:33:46.822Z,1.74
2023-12-23T05:36:49.292Z,1.54
2023-12-23T05:39:51.884Z,1.65
2023-12-23T05:42:54.210Z,1.50
2023-12-23T05:45:56.567Z,1.51
2023-12-23T05:48:59.136Z,1.51
2023-12-23T05:52:01.621Z,1.51
2023-12-23T05:55:04.243Z,1.63
2023-12-23T05:58:06.742Z,1.40
2023-12-23T06:01:09.612Z,1.35
2023-12-23T06:04:12.082Z,1.42
2023-12-23T06:07:15.891Z,1.28
2023-12-23T06:10:18.319Z,1.32
2023-12-23T06:13:20.739Z,1.23
2023-12-23T06:16:23.178Z,1.31
2023-12-23T06:19:25.617Z,1.42
2023-12-23T06:22:28.064Z,1.31
2023-12-23T06:25:33.597Z,1.23
2023-12-23T06:28:36.014Z,1.34
2023-12-23T06:31:38.505Z,1.21
2023-12-23T06:34:40.879Z,1.21
2023-12-23T06:37:43.231Z,1.28
2023-12-23T06:40:45.696Z,1.43
2023-12-23T06:43:52.610Z,1.55
2023-12-23T06:46:55.949Z,1.66
2023-12-23T06:49:58.521Z,1.72
2023-12-23T06:53:00.998Z,1.81
2023-12-23T06:56:07.662Z,1.60
2023-12-23T06:59:13.942Z,1.93
2023-12-23T07:02:16.461Z,1.79
2023-12-23T07:05:19.592Z,1.97
2023-12-23T07:08:22.209Z,2.02
2023-12-23T07:11:25.245Z,1.94
2023-12-23T07:14:27.639Z,1.83
2023-12-23T07:17:38.410Z,1.57
2023-12-23T07:20:44.412Z,1.50
2023-12-23T07:23:47.091Z,1.59
2023-12-23T07:26:49.922Z,1.62
2023-12-23T07:29:52.390Z,1.88
2023-12-23T07:32:55.254Z,3.27
2023-12-23T07:35:58.279Z,4.37
2023-12-23T07:39:00.624Z,4.16
2023-12-23T07:42:03.071Z,4.67
2023-12-23T07:45:06.045Z,4.72
2023-12-23T07:48:08.636Z,4.89
2023-12-23T07:51:11.069Z,5.03
2023-12-23T07:54:13.493Z,5.58
2023-12-23T07:57:15.930Z,6.04
2023-12-23T08:00:18.432Z,6.14
2023-12-23T08:03:20.798Z,6.76
2023-12-23T08:06:24.434Z,7.17
2023-12-23T08:09:26.804Z,7.71
2023-12-23T08:12:29.133Z,7.83
2023-12-23T08:15:31.499Z,8.29
2023-12-23T08:18:33.924Z,8.73
2023-12-23T08:21:36.377Z,7.77
2023-12-23T08:24:38.813Z,5.50
2023-12-23T08:27:41.151Z,4.45
2023-12-23T08:30:43.664Z,3.95
2023-12-23T08:33:46.303Z,3.47
2023-12-23T08:36:50.445Z,2.72
2023-12-23T08:39:53.630Z,2.22
2023-12-23T08:42:55.997Z,4.40
2023-12-23T08:45:58.416Z,5.61
2023-12-23T08:49:01.634Z,8.14
2023-12-23T08:52:04.173Z,9.84
2023-12-23T08:55:06.981Z,11.17
2023-12-23T08:58:09.341Z,12.44
2023-12-23T09:01:12.467Z,12.62
2023-12-23T09:04:14.898Z,13.42
2023-12-23T09:07:17.334Z,12.23
2023-12-23T09:10:19.779Z,11.15
2023-12-23T09:13:22.163Z,10.73
2023-12-23T09:16:24.562Z,10.33
2023-12-23T09:19:27.070Z,10.93
2023-12-23T09:22:29.487Z,9.11
2023-12-23T09:25:31.889Z,7.63
2023-12-23T09:28:34.257Z,6.95
2023-12-23T09:31:36.858Z,5.56
2023-12-23T09:34:39.382Z,5.26
2023-12-23T09:37:41.807Z,5.23
2023-12-23T09:40:44.382Z,4.91
2023-12-23T09:43:49.288Z,4.93
2023-12-23T09:46:51.985Z,4.70
2023-12-23T09:49:54.480Z,4.57
2023-12-23T09:53:01.503Z,4.33
2023-12-23T09:56:05.895Z,4.51
2023-12-23T09:59:08.389Z,4.21
2023-12-23T10:02:10.793Z,4.09
2023-12-23T10:05:13.837Z,4.05
2023-12-23T10:08:16.505Z,3.95
2023-12-23T10:11:19.610Z,3.98
2023-12-23T10:14:23.324Z,4.12
2023-12-23T10:17:25.961Z,4.16
2023-12-23T10:20:28.591Z,4.20
2023-12-23T10:23:31.099Z,4.06
2023-12-23T10:26:35.131Z,4.12
2023-12-23T10:29:40.239Z,3.94
2023-12-23T10:32:46.763Z,3.93
2023-12-23T10:35:49.824Z,3.97
2023-12-23T10:38:58.087Z,3.74
2023-12-23T10:42:05.341Z,3.62
2023-12-23T10:45:08.496Z,3.50
2023-12-23T10:48:11.245Z,3.71
2023-12-23T10:51:14.634Z,3.64
2023-12-23T10:54:17.433Z,3.81
2023-12-23T10:57:25.478Z,3.75
2023-12-23T11:00:27.992Z,3.60
2023-12-23T11:03:33.719Z,3.80
2023-12-23T11:06:42.376Z,3.77
2023-12-23T11:09:48.322Z,3.58
2023-12-23T11:12:51.139Z,3.79
2023-12-23T11:15:56.915Z,3.60
2023-12-23T11:18:59.631Z,3.76
2023-12-23T11:22:23.202Z,3.54
2023-12-23T11:25:42.372Z,3.59
2023-12-23T11:28:50.227Z,3.54
2023-12-23T11:31:52.942Z,3.62
2023-12-23T11:34:55.712Z,3.56
2023-12-23T11:37:58.741Z,3.58
2023-12-23T11:41:01.607Z,3.44
2023-12-23T11:44:05.952Z,3.55
2023-12-23T11:47:09.634Z,3.38
2023-12-23T11:50:13.556Z,3.43
2023-12-23T11:53:16.736Z,3.32
2023-12-23T11:56:20.861Z,3.53
2023-12-23T11:59:23.876Z,3.37
2023-12-23T12:02:26.952Z,3.54
2023-12-23T12:05:32.489Z,3.59
2023-12-23T12:08:34.981Z,3.36
2023-12-23T12:11:38.775Z,3.38
2023-12-23T12:14:41.809Z,3.43
2023-12-23T12:17:44.410Z,3.31
2023-12-23T12:20:47.371Z,3.44
2023-12-23T12:23:49.927Z,3.36
2023-12-23T12:26:57.963Z,3.42
2023-12-23T12:30:00.512Z,3.43
2023-12-23T12:33:03.416Z,3.42
2023-12-23T12:36:12.828Z,3.26
2023-12-23T12:39:15.553Z,3.28
2023-12-23T12:42:18.022Z,3.21
2023-12-23T12:45:24.752Z,3.34
2023-12-23T12:48:28.410Z,3.22
2023-12-23T12:51:31.070Z,3.27
2023-12-23T12:54:33.584Z,3.23
2023-12-23T12:57:36.237Z,3.33
2023-12-23T13:00:38.715Z,3.18
2023-12-23T13:03:41.249Z,3.01
2023-12-23T13:06:43.983Z,3.28
2023-12-23T13:09:46.878Z,3.27
2023-12-23T13:12:49.894Z,3.25
2023-12-23T13:15:52.909Z,3.21
2023-12-23T13:19:00.057Z,3.13
2023-12-23T13:22:03.811Z,3.15
2023-12-23T13:25:10.372Z,3.12
2023-12-23T13:28:12.938Z,3.02
2023-12-23T13:31:15.360Z,3.14
2023-12-23T13:34:17.803Z,3.08
2023-12-23T13:37:20.184Z,2.92
2023-12-23T13:40:22.798Z,2.92
2023-12-23T13:43:26.327Z,2.92
2023-12-23T13:46:28.721Z,2.74
2023-12-23T13:49:31.206Z,2.86
2023-12-23T13:52:33.808Z,2.99
2023-12-23T13:55:36.177Z,2.83
2023-12-23T13:58:38.693Z,2.79
2023-12-23T14:01:41.085Z,2.50
2023-12-23T14:04:43.573Z,2.85
2023-12-23T14:07:45.986Z,2.77
2023-12-23T14:10:49.976Z,2.85
2023-12-23T14:13:52.659Z,2.76
2023-12-23T14:16:55.159Z,2.70
2023-12-23T14:19:57.652Z,2.63
2023-12-23T14:23:00.109Z,2.50
2023-12-23T14:26:02.684Z,2.29
2023-12-23T14:29:05.163Z,2.32
2023-12-23T14:32:07.694Z,2.26
2023-12-23T14:35:13.275Z,1.98
2023-12-23T14:38:15.888Z,2.09
2023-12-23T14:41:19.505Z,1.89
2023-12-23T14:44:22.042Z,1.81
2023-12-23T14:47:24.560Z,1.90
2023-12-23T14:50:27.020Z,1.90
2023-12-23T14:53:30.013Z,1.81
2023-12-23T14:56:32.834Z,1.76
2023-12-23T14:59:35.254Z,1.72
2023-12-23T15:02:37.732Z,1.73
2023-12-23T15:05:40.337Z,1.63
2023-12-23T15:08:42.817Z,1.64
2023-12-23T15:11:45.230Z,1.54
2023-12-23T15:14:47.731Z,1.42
2023-12-23T15:17:50.138Z,1.57
2023-12-23T15:20:52.535Z,1.42
2023-12-23T15:23:56.614Z,1.34
2023-12-23T15:26:58.998Z,1.48
2023-12-23T15:30:02.905Z,1.29
2023-12-23T15:33:05.686Z,1.45
2023-12-23T15:36:08.703Z,1.47
2023-12-23T15:39:11.457Z,1.54
2023-12-23T15:42:13.934Z,1.50
2023-12-23T15:45:16.740Z,1.47
2023-12-23T15:48:19.267Z,1.60
2023-12-23T15:51:21.761Z,1.38
2023-12-23T15:54:24.214Z,1.35
2023-12-23T15:57:26.701Z,1.21
2023-12-23T16:00:29.471Z,1.53
2023-12-23T16:03:32.639Z,1.43
2023-12-23T16:06:35.388Z,1.54
2023-12-23T16:09:37.785Z,1.43
2023-12-23T16:12:40.568Z,1.55
2023-12-23T16:15:43.063Z,1.57
2023-12-23T16:18:45.750Z,1.63
2023-12-23T16:21:48.288Z,1.52
2023-12-23T16:24:50.732Z,1.51
2023-12-23T16:27:53.144Z,1.66
2023-12-23T16:30:55.905Z,1.66
2023-12-23T16:33:58.302Z,1.73
2023-12-23T16:37:00.712Z,1.68
2023-12-23T16:40:03.451Z,1.70
2023-12-23T16:43:05.982Z,1.71
2023-12-23T16:46:09.363Z,1.55
2023-12-23T16:49:11.741Z,1.58
2023-12-23T16:52:14.233Z,1.53
2023-12-23T16:55:16.639Z,1.77
2023-12-23T16:58:19.885Z,1.54
2023-12-23T17:01:22.391Z,1.73
2023-12-23T17:04:24.762Z,1.69
2023-12-23T17:07:27.152Z,1.70
2023-12-23T17:10:30.349Z,1.52
2023-12-23T17:13:34.475Z,1.57
2023-12-23T17:16:36.844Z,1.60
2023-12-23T17:19:39.267Z,1.52
2023-12-23T17:22:41.672Z,1.55
2023-12-23T17:25:44.052Z,1.71
2023-12-23T17:28:46.470Z,1.48
2023-12-23T17:31:48.816Z,1.58
2023-12-23T17:34:51.228Z,1.72
2023-12-23T17:37:53.634Z,1.70
2023-12-23T17:40:56.047Z,1.65
2023-12-23T17:43:58.431Z,1.64
2023-12-23T17:47:01.380Z,1.44
2023-12-23T17:50:05.519Z,1.45
2023-12-23T17:53:08.183Z,1.52
2023-12-23T17:56:11.766Z,1.33
2023-12-23T17:59:14.219Z,1.55
2023-12-23T18:02:18.253Z,1.26
2023-12-23T18:05:20.806Z,1.30
2023-12-23T18:08:23.338Z,1.36
2023-12-23T18:11:25.928Z,1.25
2023-12-23T18:14:29.681Z,1.19
2023-12-23T18:17:32.445Z,1.10
2023-12-23T18:20:35.004Z,1.20
2023-12-23T18:23:37.506Z,1.29
2023-12-23T18:26:39.946Z,1.17
2023-12-23T18:29:42.319Z,1.00
2023-12-23T18:32:44.867Z,1.12
2023-12-23T18:35:48.049Z,1.16
2023-12-23T18:38:50.589Z,1.12
2023-12-23T18:41:53.010Z,1.01
2023-12-23T18:44:55.471Z,1.14
2023-12-23T18:47:58.534Z,1.10
2023-12-23T18:51:01.360Z,1.33
2023-12-23T18:54:03.954Z,1.18
2023-12-23T18:57:07.446Z,1.30
2023-12-23T19:00:10.944Z,1.34
2023-12-23T19:03:15.111Z,1.28
2023-12-23T19:06:17.631Z,1.28
2023-12-23T19:09:20.013Z,1.33
2023-12-23T19:12:22.655Z,1.23
2023-12-23T19:15:25.073Z,1.26
2023-12-23T19:18:27.617Z,1.18
2023-12-23T19:21:30.071Z,1.29
2023-12-23T19:24:32.427Z,1.43
2023-12-23T19:27:35.138Z,1.39
2023-12-23T19:30:37.784Z,1.50
2023-12-23T19:33:40.457Z,1.38
2023-12-23T19:36:43.125Z,1.02
2023-12-23T19:39:55.748Z,1.30
2023-12-23T19:43:05.780Z,1.01
2023-12-23T19:46:08.596Z,1.21
2023-12-23T19:49:11.152Z,1.21
2023-12-23T19:52:13.729Z,1.18
2023-12-23T19:55:16.146Z,1.04
2023-12-23T19:58:18.557Z,1.21
2023-12-23T20:01:20.995Z,0.95
2023-12-23T20:04:23.476Z,1.07
2023-12-23T20:07:25.862Z,1.11
2023-12-23T20:10:28.325Z,0.96
2023-12-23T20:13:31.408Z,0.94
2023-12-23T20:16:33.984Z,1.04
2023-12-23T20:19:36.373Z,1.05
2023-12-23T20:22:39.911Z,1.17
2023-12-23T20:25:42.506Z,1.21
2023-12-23T20:28:45.466Z,1.19
2023-12-23T20:31:47.909Z,1.17
2023-12-23T20:34:50.352Z,1.31
2023-12-23T20:37:52.792Z,1.26
2023-12-23T20:40:56.021Z,1.36
2023-12-23T20:43:58.471Z,1.22
2023-12-23T20:47:00.929Z,1.23
2023-12-23T20:50:03.638Z,1.39
2023-12-23T20:53:06.879Z,1.33
2023-12-23T20:56:09.359Z,1.34
2023-12-23T20:59:11.827Z,1.34
2023-12-23T21:02:14.232Z,1.40
2023-12-23T21:05:16.830Z,1.27
2023-12-23T21:08:19.439Z,1.53
2023-12-23T21:11:22.018Z,1.41
2023-12-23T21:14:24.411Z,1.48
2023-12-23T21:17:27.378Z,1.48
2023-12-23T21:20:29.783Z,1.51
2023-12-23T21:23:32.530Z,1.65
2023-12-23T21:26:35.747Z,1.39
2023-12-23T21:29:38.286Z,1.77
2023-12-23T21:32:40.913Z,1.73
2023-12-23T21:35:47.695Z,1.66
2023-12-23T21:38:50.102Z,1.56
2023-12-23T21:41:52.493Z,1.66
2023-12-23T21:44:54.951Z,1.67
2023-12-23T21:47:57.577Z,1.69
2023-12-23T21:51:00.102Z,1.63
2023-12-23T21:54:03.516Z,1.77
2023-12-23T21:57:05.936Z,1.75
2023-12-23T22:00:09.643Z,1.58
2023-12-23T22:03:12.212Z,1.47
2023-12-23T22:06:14.993Z,1.48
2023-12-23T22:09:17.524Z,1.58
2023-12-23T22:12:19.922Z,1.62
2023-12-23T22:15:22.356Z,1.50
2023-12-23T22:18:24.828Z,1.65
2023-12-23T22:21:27.474Z,1.64
2023-12-23T22:24:29.820Z,1.48
2023-12-23T22:27:32.183Z,1.50
2023-12-23T22:30:34.705Z,1.33
2023-12-23T22:33:37.156Z,1.65
2023-12-23T22:36:39.630Z,1.71
2023-12-23T22:39:48.672Z,1.70
2023-12-23T22:42:51.908Z,1.60
2023-12-23T22:45:54.668Z,1.48
2023-12-23T22:48:57.051Z,1.55
2023-12-23T22:51:59.429Z,1.47
2023-12-23T22:55:01.816Z,1.46
2023-12-23T22:58:04.688Z,1.70
2023-12-23T23:01:07.182Z,1.69
2023-12-23T23:04:09.659Z,1.76
2023-12-23T23:07:12.757Z,1.46
2023-12-23T23:10:17.041Z,1.40
2023-12-23T23:13:19.415Z,1.52
2023-12-23T23:16:21.815Z,1.61
2023-12-23T23:19:24.372Z,1.24
2023-12-23T23:22:28.092Z,1.67
2023-12-23T23:25:30.444Z,1.52
2023-12-23T23:28:32.796Z,1.73
2023-12-23T23:31:35.199Z,1.70
2023-12-23T23:34:37.606Z,1.75
2023-12-23T23:37:41.002Z,1.74
2023-12-23T23:40:43.463Z,1.67
2023-12-23T23:43:46.027Z,1.76
2023-12-23T23:46:48.442Z,1.93
2023-12-23T23:49:50.890Z,1.70
2023-12-23T23:52:53.584Z,1.63
2023-12-23T23:55:56.108Z,1.65
2023-12-23T23:58:58.583Z,1.62
